Terminal Aerodrome Forecast
Issued by NWS

Home | Current Version | Previous Version | Text Only | Print | Product List | Glossary On
Versions: 1 2 3 4 5 6 7 8 9 10 11 12 13 14 15
000
FTUS44 KOUN 301720
TAFPNC
TAF
KPNC 301720Z 3018/0118 20016G24KT P6SM VCSH BKN020 OVC035
      TEMPO 3018/3021 SCT020 OVC035
     FM302100 21015G23KT P6SM OVC010
      TEMPO 3022/0102 OVC009
     FM010200 30015KT P6SM BKN020 BKN035
     FM010800 30010KT P6SM SCT050=

USA.gov is the U.S. government's official web portal to all federal, state and local government web resources and services.